N883MA W90-KHSP

Flight info

Callsign N883MA
Flight time N/A
Altitude 4500
Route RADARDOME RIVERWOOD
Aircraft C170/L-S/C

Departure

Time N/A
Airport W90

Arrival

Time 2026-05-09 03:31
Airport Ingalls Field (KHSP)
Time Latitude Longitude Altitude Speed Heading
2026-05-09 02:38 37.27257 -79.33687 819 ft 0 kts 136°
2026-05-09 02:49 37.27254 -79.33658 818 ft 9 kts 82°
2026-05-09 02:49 37.27256 -79.33652 819 ft 0 kts 46°
2026-05-09 02:50 37.27257 -79.33650 819 ft 2 kts 91°
2026-05-09 02:50 37.27197 -79.33626 814 ft 14 kts 166°
2026-05-09 02:50 37.27063 -79.33587 803 ft 17 kts 168°
2026-05-09 02:50 37.26941 -79.33546 795 ft 19 kts 166°
2026-05-09 02:51 37.26821 -79.33510 784 ft 11 kts 165°
2026-05-09 02:51 37.26785 -79.33498 781 ft 0 kts 165°
2026-05-09 02:55 37.26784 -79.33498 781 ft 3 kts 165°
2026-05-09 02:55 37.26770 -79.33469 780 ft 0 kts 343°
2026-05-09 02:55 37.26837 -79.33491 786 ft 37 kts 347°
2026-05-09 02:55 37.27238 -79.33594 860 ft 70 kts 345°
2026-05-09 02:56 37.27726 -79.33708 1084 ft 71 kts 346°
2026-05-09 02:56 37.28228 -79.33788 1288 ft 74 kts 352°
2026-05-09 02:56 37.28734 -79.33865 1474 ft 74 kts 343°
2026-05-09 02:56 37.29072 -79.34299 1615 ft 70 kts 277°
2026-05-09 02:57 37.29183 -79.34892 1795 ft 72 kts 272°
2026-05-09 02:57 37.29274 -79.35522 1971 ft 73 kts 267°
2026-05-09 02:57 37.29349 -79.36152 2154 ft 72 kts 264°
2026-05-09 02:57 37.29394 -79.36787 2345 ft 73 kts 261°
2026-05-09 02:58 37.29392 -79.37412 2558 ft 71 kts 259°
2026-05-09 02:58 37.29423 -79.38043 2748 ft 72 kts 261°
2026-05-09 02:58 37.29452 -79.38676 2894 ft 72 kts 255°
2026-05-09 02:58 37.29565 -79.39307 3072 ft 84 kts 286°
2026-05-09 02:59 37.29978 -79.39854 3284 ft 89 kts 311°
2026-05-09 02:59 37.30519 -79.40244 3475 ft 90 kts 320°
2026-05-09 02:59 37.31083 -79.40553 3691 ft 87 kts 327°
2026-05-09 02:59 37.31654 -79.40822 3897 ft 87 kts 326°
2026-05-09 03:00 37.32211 -79.41100 4061 ft 85 kts 326°
2026-05-09 03:00 37.32774 -79.41383 4181 ft 89 kts 324°
2026-05-09 03:00 37.33343 -79.41669 4338 ft 88 kts 327°
2026-05-09 03:00 37.33908 -79.41947 4470 ft 90 kts 327°
2026-05-09 03:01 37.34525 -79.42254 4513 ft 100 kts 329°
2026-05-09 03:01 37.34977 -79.42483 4510 ft 108 kts 329°
2026-05-09 03:01 37.35677 -79.42855 4539 ft 108 kts 327°
2026-05-09 03:01 37.36595 -79.43338 4596 ft 109 kts 327°
2026-05-09 03:02 37.37266 -79.43734 4643 ft 105 kts 324°
2026-05-09 03:02 37.37715 -79.44007 4648 ft 108 kts 324°
2026-05-09 03:02 37.38650 -79.44546 4640 ft 112 kts 326°
2026-05-09 03:02 37.39127 -79.44810 4690 ft 111 kts 327°
2026-05-09 03:03 37.39857 -79.45200 4605 ft 120 kts 328°
2026-05-09 03:03 37.40645 -79.45647 4484 ft 123 kts 326°
2026-05-09 03:03 37.41401 -79.46095 4513 ft 116 kts 325°
2026-05-09 03:03 37.42113 -79.46538 4592 ft 111 kts 323°
2026-05-09 03:04 37.42810 -79.46976 4580 ft 114 kts 324°
2026-05-09 03:04 37.43530 -79.47418 4563 ft 113 kts 324°
2026-05-09 03:04 37.44239 -79.47847 4579 ft 113 kts 325°
2026-05-09 03:04 37.44958 -79.48262 4562 ft 116 kts 325°
2026-05-09 03:05 37.45682 -79.48702 4582 ft 115 kts 323°
2026-05-09 03:05 37.46379 -79.49170 4592 ft 113 kts 323°
2026-05-09 03:05 37.47079 -79.49621 4595 ft 114 kts 323°
2026-05-09 03:05 37.47788 -79.50069 4605 ft 113 kts 322°
2026-05-09 03:06 37.48474 -79.50560 4638 ft 113 kts 319°
2026-05-09 03:06 37.49156 -79.51078 4622 ft 119 kts 319°
2026-05-09 03:06 37.49853 -79.51672 4486 ft 121 kts 316°
2026-05-09 03:06 37.50543 -79.52250 4417 ft 118 kts 319°
2026-05-09 03:07 37.51290 -79.52710 4323 ft 122 kts 328°
2026-05-09 03:07 37.52075 -79.53076 4377 ft 118 kts 333°
2026-05-09 03:07 37.52831 -79.53340 4493 ft 108 kts 334°
2026-05-09 03:07 37.53564 -79.53587 4566 ft 111 kts 336°
2026-05-09 03:08 37.54339 -79.53847 4519 ft 117 kts 336°
2026-05-09 03:08 37.55128 -79.54114 4508 ft 117 kts 337°
2026-05-09 03:08 37.55918 -79.54353 4477 ft 116 kts 338°
2026-05-09 03:08 37.56707 -79.54592 4448 ft 116 kts 338°
2026-05-09 03:09 37.57490 -79.54805 4479 ft 115 kts 338°
2026-05-09 03:09 37.58267 -79.55062 4465 ft 114 kts 335°
2026-05-09 03:09 37.59002 -79.55332 4507 ft 109 kts 332°
2026-05-09 03:09 37.59742 -79.55623 4476 ft 112 kts 333°
2026-05-09 03:10 37.60480 -79.55891 4498 ft 111 kts 334°
2026-05-09 03:10 37.61226 -79.56171 4520 ft 111 kts 332°
2026-05-09 03:10 37.61944 -79.56505 4570 ft 110 kts 329°
2026-05-09 03:10 37.62642 -79.56849 4647 ft 104 kts 326°
2026-05-09 03:11 37.63308 -79.57232 4630 ft 107 kts 322°
2026-05-09 03:11 37.63956 -79.57654 4657 ft 105 kts 320°
2026-05-09 03:11 37.64610 -79.58086 4630 ft 108 kts 319°
2026-05-09 03:11 37.65247 -79.58561 4643 ft 105 kts 316°
2026-05-09 03:12 37.65887 -79.59043 4650 ft 107 kts 317°
2026-05-09 03:12 37.66515 -79.59540 4681 ft 106 kts 315°
2026-05-09 03:12 37.67117 -79.60069 4740 ft 104 kts 310°
2026-05-09 03:12 37.67665 -79.60631 4803 ft 100 kts 306°
2026-05-09 03:13 37.68721 -79.61817 4837 ft 100 kts 304°
2026-05-09 03:13 37.69215 -79.62424 4883 ft 99 kts 301°
2026-05-09 03:13 37.69684 -79.63060 4855 ft 100 kts 300°
2026-05-09 03:14 37.70161 -79.63721 4838 ft 102 kts 300°
2026-05-09 03:14 37.70650 -79.64356 4822 ft 103 kts 301°
2026-05-09 03:14 37.71169 -79.64984 4757 ft 104 kts 304°
2026-05-09 03:14 37.71689 -79.65630 4757 ft 104 kts 302°
2026-05-09 03:15 37.72212 -79.66259 4801 ft 105 kts 305°
2026-05-09 03:15 37.72754 -79.66895 4797 ft 104 kts 305°
2026-05-09 03:15 37.73319 -79.67479 4766 ft 107 kts 309°
2026-05-09 03:15 37.73891 -79.68079 4811 ft 105 kts 308°
2026-05-09 03:16 37.74532 -79.68546 4765 ft 113 kts 329°
2026-05-09 03:16 37.75240 -79.68980 4765 ft 111 kts 319°
2026-05-09 03:16 37.75895 -79.69483 4759 ft 111 kts 317°
2026-05-09 03:16 37.76537 -79.70019 4694 ft 112 kts 314°
2026-05-09 03:17 37.77163 -79.70602 4632 ft 110 kts 311°
2026-05-09 03:17 37.77776 -79.71181 4590 ft 111 kts 314°
2026-05-09 03:17 37.78432 -79.71684 4383 ft 111 kts 321°
2026-05-09 03:17 37.79080 -79.72216 4329 ft 112 kts 319°
2026-05-09 03:18 37.79729 -79.72758 4288 ft 112 kts 320°
2026-05-09 03:18 37.80370 -79.73310 4283 ft 110 kts 319°
2026-05-09 03:18 37.81010 -79.73845 4255 ft 111 kts 321°
2026-05-09 03:18 37.81658 -79.74386 4223 ft 111 kts 319°
2026-05-09 03:19 37.82285 -79.74945 4219 ft 111 kts 318°
2026-05-09 03:19 37.82911 -79.75484 4251 ft 108 kts 323°
2026-05-09 03:19 37.83543 -79.75984 4265 ft 108 kts 323°
2026-05-09 03:19 37.84188 -79.76473 4248 ft 109 kts 324°
2026-05-09 03:20 37.84841 -79.76951 4264 ft 106 kts 325°
2026-05-09 03:20 37.85498 -79.77395 4232 ft 109 kts 326°
2026-05-09 03:20 37.86182 -79.77857 4190 ft 111 kts 324°
2026-05-09 03:20 37.86848 -79.78315 4207 ft 110 kts 326°
2026-05-09 03:21 37.87535 -79.78755 4228 ft 111 kts 328°
2026-05-09 03:21 37.88239 -79.79154 4215 ft 109 kts 331°
2026-05-09 03:21 37.88940 -79.79542 4212 ft 110 kts 331°
2026-05-09 03:21 37.89627 -79.79919 4348 ft 101 kts 329°
2026-05-09 03:22 37.90247 -79.80238 4604 ft 93 kts 329°
2026-05-09 03:22 37.90852 -79.80515 4766 ft 92 kts 328°
2026-05-09 03:22 37.91462 -79.80782 4871 ft 95 kts 329°
2026-05-09 03:22 37.92058 -79.81049 5019 ft 87 kts 327°
2026-05-09 03:23 37.92655 -79.81209 5098 ft 94 kts 360°
2026-05-09 03:23 37.93226 -79.80812 5225 ft 98 kts 38°
2026-05-09 03:23 37.93756 -79.80234 5275 ft 107 kts 44°
2026-05-09 03:23 37.94241 -79.79537 5386 ft 104 kts 52°
2026-05-09 03:24 37.94732 -79.78859 5372 ft 103 kts 21°
2026-05-09 03:24 37.95306 -79.78990 5389 ft 77 kts 310°
2026-05-09 03:24 37.95735 -79.79363 5309 ft 80 kts 313°
2026-05-09 03:24 37.96176 -79.79763 5166 ft 75 kts 305°
2026-05-09 03:25 37.96552 -79.80204 5013 ft 71 kts 298°
2026-05-09 03:25 37.96581 -79.80681 4783 ft 60 kts 221°
2026-05-09 03:25 37.96301 -79.81088 4633 ft 57 kts 228°
2026-05-09 03:25 37.96067 -79.81495 4541 ft 57 kts 234°
2026-05-09 03:26 37.95873 -79.81957 4521 ft 66 kts 234°
2026-05-09 03:26 37.95622 -79.82501 4569 ft 76 kts 234°
2026-05-09 03:26 37.95334 -79.83112 4581 ft 83 kts 234°
2026-05-09 03:26 37.95024 -79.83733 4644 ft 83 kts 232°
2026-05-09 03:27 37.94706 -79.84290 4685 ft 75 kts 229°
2026-05-09 03:27 37.94363 -79.84754 4777 ft 69 kts 213°
2026-05-09 03:27 37.93898 -79.84816 4849 ft 76 kts 167°
2026-05-09 03:27 37.93547 -79.84276 4705 ft 89 kts 118°
2026-05-09 03:28 37.93652 -79.83479 4556 ft 101 kts 69°
2026-05-09 03:28 37.93985 -79.82694 4631 ft 102 kts 70°
2026-05-09 03:28 37.94266 -79.81878 4681 ft 101 kts 73°
2026-05-09 03:28 37.94558 -79.81101 4800 ft 96 kts 68°
2026-05-09 03:29 37.94852 -79.80339 4815 ft 94 kts 74°
2026-05-09 03:29 37.95271 -79.79738 4911 ft 90 kts 11°
2026-05-09 03:29 37.95808 -79.79912 4895 ft 74 kts 308°
2026-05-09 03:29 37.96225 -79.80260 4891 ft 72 kts 307°
2026-05-09 03:30 37.96477 -79.80740 4705 ft 62 kts 248°
2026-05-09 03:30 37.96288 -79.81204 4342 ft 63 kts 217°
2026-05-09 03:30 37.96006 -79.81631 4074 ft 60 kts 230°
2026-05-09 03:30 37.95784 -79.82084 3933 ft 60 kts 227°
2026-05-09 03:31 37.95582 -79.82506 3822 ft 52 kts 229°
2026-05-09 03:31 37.95378 -79.82910 3778 ft 53 kts 231°
2026-05-09 03:31 37.95207 -79.83239 3787 ft 34 kts 228°
2026-05-09 03:31 37.95097 -79.83469 3780 ft 23 kts 243°
2026-05-09 03:32 37.95039 -79.83617 3781 ft 18 kts 239°
2026-05-09 03:32 37.94971 -79.83748 3784 ft 15 kts 242°
2026-05-09 03:32 37.94933 -79.83854 3785 ft 12 kts 272°
2026-05-09 03:32 37.94960 -79.83936 3788 ft 9 kts 20°
2026-05-09 03:33 37.95017 -79.83842 3786 ft 19 kts 50°
2026-05-09 03:33 37.95124 -79.83731 3784 ft 20 kts 39°
2026-05-09 03:33 37.95201 -79.83587 3785 ft 19 kts 58°
2026-05-09 03:33 37.95239 -79.83515 3781 ft 6 kts 22°
2026-05-09 03:34 37.95276 -79.83538 3781 ft 0 kts 324°